Charlemont, Massachusetts
Current Conditions -  °F | °C
As of 1:52 AM on Sunday 23 Nov 2014 (Local Time) from KAQW Reporting Station
Light Rain Light Rain  
Wind Chill: 29°   Ceiling: 2600
Heat Index: 35°   Visibility: 4mi
Dew Point: 32°   Wind: 7mph
Humidity: 89%   Direction: 110°ESE
Pressure: 30.09"   Gusts: NA
Location:  42.63°N, 72.87°W
Report Text: KAQW 230652Z AUTO 11006KT 4SM -RA BR OVC026 02/00 A3009 RMK AO2 SLP198 P0003 T00170000
Loading
Personal Weather Stations






























Interactive Weather Map New forecast layout! Learn more

10-Day Weather Forecast

Advertisements
Track Severe Weather on mobile